Time;durP1;ratioP1;P1;durP2;ratioP2;P2;SDS_P1;SDS_P2;PMS_P1;PMS_P2;Temp;Humidity;BMP_temperature;BMP_pressure;BME280_temperature;BME280_humidity;BME280_pressure;Samples;Min_cycle;Max_cycle;Signal;HPM_P1;HPM_P2
2021/07/24 00:02:45;;;;;;;16.70;10.30;;;;;;;;;;4328410;33;20634;-82
2021/07/24 00:05:23;;;;;;;14.63;9.05;;;;;;;;;;4294746;33;20191;-82
2021/07/24 00:07:55;;;;;;;13.30;9.30;;;;;;;;;;4371531;32;20616;-81
2021/07/24 00:10:23;;;;;;;13.30;9.32;;;;;;;;;;4380014;32;20254;-82
2021/07/24 00:13:07;;;;;;;13.50;9.70;;;;;;;;;;4378664;32;20151;-82
2021/07/24 00:15:32;;;;;;;19.27;10.13;;;;;;;;;;4328193;33;20215;-81
2021/07/24 00:17:58;;;;;;;13.05;9.75;;;;;;;;;;4389119;32;20474;-81
2021/07/24 00:20:29;;;;;;;15.45;9.00;;;;;;;;;;4329901;32;20207;-82
2021/07/24 00:22:54;;;;;;;15.40;9.95;;;;;;;;;;4343948;33;20200;-81
2021/07/24 00:25:23;;;;;;;14.60;9.57;;;;;;;;;;4330325;33;20503;-82
2021/07/24 00:27:58;;;;;;;14.68;9.50;;;;;;;;;;4343809;32;20131;-81
2021/07/24 00:30:23;;;;;;;13.88;9.20;;;;;;;;;;4328498;32;20155;-81
2021/07/24 00:33:14;;;;;;;13.55;10.02;;;;;;;;;;4324825;32;20155;-82
2021/07/24 00:35:43;;;;;;;15.20;10.27;;;;;;;;;;4334923;32;20193;-81
2021/07/24 00:38:35;;;;;;;15.75;9.95;;;;;;;;;;4332590;32;20182;-82
2021/07/24 00:41:03;;;;;;;13.88;8.90;;;;;;;;;;4345202;33;20653;-82
2021/07/24 00:43:32;;;;;;;14.48;9.20;;;;;;;;;;4332279;32;20160;-81
2021/07/24 00:45:58;;;;;;;16.00;10.15;;;;;;;;;;4339893;33;20159;-82
2021/07/24 00:48:42;;;;;;;13.00;9.27;;;;;;;;;;4329853;32;20182;-82
2021/07/24 00:51:08;;;;;;;17.40;10.40;;;;;;;;;;4328477;32;20228;-81
2021/07/24 00:53:54;;;;;;;16.23;10.02;;;;;;;;;;4344554;32;20171;-81
2021/07/24 00:56:23;;;;;;;16.37;10.50;;;;;;;;;;4341867;33;20230;-81
2021/07/24 00:59:19;;;;;;;;;;;;;;;;;;;;;
2021/07/24 01:01:45;;;;;;;14.15;10.00;;;;;;;;;;4342537;32;20517;-81
2021/07/24 01:04:13;;;;;;;16.33;10.85;;;;;;;;;;4355384;32;20174;-81
2021/07/24 01:06:47;;;;;;;15.80;10.15;;;;;;;;;;4359533;32;20188;-81
2021/07/24 01:09:15;;;;;;;19.98;11.68;;;;;;;;;;4360106;32;20270;-81
2021/07/24 01:11:40;;;;;;;16.62;10.77;;;;;;;;;;4359389;33;20206;-81
2021/07/24 01:14:07;;;;;;;15.57;11.07;;;;;;;;;;4361140;32;20173;-81
2021/07/24 01:16:42;;;;;;;16.15;10.02;;;;;;;;;;4352599;32;20171;-81
2021/07/24 01:19:50;;;;;;;16.10;10.43;;;;;;;;;;4346470;32;20518;-81
2021/07/24 01:22:21;;;;;;;14.90;10.13;;;;;;;;;;4347617;32;20259;-81
2021/07/24 01:24:49;;;;;;;15.25;9.65;;;;;;;;;;4344265;33;20159;-82
2021/07/24 01:27:14;;;;;;;16.95;10.57;;;;;;;;;;4343800;33;20175;-81
2021/07/24 01:29:48;;;;;;;16.77;10.52;;;;;;;;;;4344027;33;20241;-82
2021/07/24 01:32:19;;;;;;;16.98;11.00;;;;;;;;;;4344618;33;20146;-81
2021/07/24 01:34:46;;;;;;;17.52;11.65;;;;;;;;;;4344280;32;20208;-81
2021/07/24 01:37:11;;;;;;;16.15;10.73;;;;;;;;;;4355622;33;20206;-81
2021/07/24 01:39:39;;;;;;;16.37;11.05;;;;;;;;;;4359055;32;20155;-81
2021/07/24 01:42:05;;;;;;;15.30;10.50;;;;;;;;;;4358782;32;20151;-81
2021/07/24 01:44:30;;;;;;;14.90;10.48;;;;;;;;;;4358584;32;20660;-81
2021/07/24 01:46:58;;;;;;;18.12;11.20;;;;;;;;;;4358541;32;20143;-81
2021/07/24 01:52:49;;;;;;;14.80;9.50;;;;;;;;;;4360255;33;20228;-81
2021/07/24 01:55:41;;;;;;;15.85;11.15;;;;;;;;;;4359289;33;20177;-79
2021/07/24 01:58:10;;;;;;;18.55;11.38;;;;;;;;;;4360786;32;20553;-83
2021/07/24 02:01:14;;;;;;;17.12;10.88;;;;;;;;;;4358418;32;20519;-83
2021/07/24 02:03:56;;;;;;;17.00;10.23;;;;;;;;;;4357809;32;20247;-83
2021/07/24 02:06:29;;;;;;;16.58;10.77;;;;;;;;;;4358803;32;20154;-83
2021/07/24 02:09:17;;;;;;;;;;;;;;;;;;;;;
2021/07/24 02:11:46;;;;;;;19.17;11.23;;;;;;;;;;4347867;32;20585;-83
2021/07/24 02:14:49;;;;;;;18.58;12.23;;;;;;;;;;4344089;32;20225;-83
2021/07/24 02:17:15;;;;;;;15.20;9.85;;;;;;;;;;4332592;32;20619;-83
2021/07/24 02:19:43;;;;;;;15.18;10.52;;;;;;;;;;4347150;33;20158;-82
2021/07/24 02:22:13;;;;;;;18.17;11.60;;;;;;;;;;4359349;32;20162;-83
2021/07/24 02:24:39;;;;;;;20.15;12.07;;;;;;;;;;4359284;32;20197;-83
2021/07/24 02:27:08;;;;;;;18.67;12.65;;;;;;;;;;4359474;33;20544;-83
2021/07/24 02:29:45;;;;;;;18.52;12.32;;;;;;;;;;4357957;33;20163;-83
2021/07/24 02:32:18;;;;;;;19.45;12.27;;;;;;;;;;4359499;32;20139;-83
2021/07/24 02:34:46;;;;;;;20.85;12.35;;;;;;;;;;4347384;32;20700;-83
2021/07/24 02:37:11;;;;;;;18.12;11.45;;;;;;;;;;4342968;32;20174;-82
2021/07/24 02:39:38;;;;;;;18.00;11.25;;;;;;;;;;4341089;32;20629;-83
2021/07/24 02:42:06;;;;;;;19.65;11.02;;;;;;;;;;4341958;32;20528;-82
2021/07/24 02:44:34;;;;;;;17.27;11.50;;;;;;;;;;4342870;33;20736;-82
2021/07/24 02:47:05;;;;;;;16.40;10.63;;;;;;;;;;4343639;32;20209;-83
2021/07/24 02:52:19;;;;;;;19.48;12.37;;;;;;;;;;4338397;33;20160;-83
2021/07/24 02:54:47;;;;;;;17.35;11.12;;;;;;;;;;4344488;32;20208;-83
2021/07/24 02:57:13;;;;;;;20.92;11.80;;;;;;;;;;4342501;32;20656;-83
2021/07/24 03:00:06;;;;;;;;;;;;;;;;;;;;;
2021/07/24 03:02:34;;;;;;;20.12;11.05;;;;;;;;;;4344497;33;20576;-83
2021/07/24 03:05:07;;;;;;;20.00;12.57;;;;;;;;;;4344454;32;20159;-83
2021/07/24 03:07:40;;;;;;;19.73;12.00;;;;;;;;;;4344036;33;20159;-83
2021/07/24 03:10:32;;;;;;;20.80;13.25;;;;;;;;;;4327330;32;20152;-83
2021/07/24 03:12:57;;;;;;;17.17;10.90;;;;;;;;;;4315655;33;20476;-83
2021/07/24 03:15:28;;;;;;;19.12;11.05;;;;;;;;;;4316003;32;20213;-83
2021/07/24 03:18:02;;;;;;;21.67;12.07;;;;;;;;;;4315324;32;20186;-83
2021/07/24 03:20:29;;;;;;;18.45;10.23;;;;;;;;;;4315028;33;20186;-83
2021/07/24 03:22:59;;;;;;;17.55;10.30;;;;;;;;;;4322355;32;20159;-83
2021/07/24 03:25:30;;;;;;;19.58;11.48;;;;;;;;;;4331111;32;20241;-82
2021/07/24 03:27:59;;;;;;;18.87;11.70;;;;;;;;;;4331604;33;20147;-82
2021/07/24 03:30:40;;;;;;;17.67;11.10;;;;;;;;;;4330453;33;20238;-82
2021/07/24 03:33:11;;;;;;;17.70;11.05;;;;;;;;;;4329280;33;20678;-82
2021/07/24 03:35:45;;;;;;;22.33;12.02;;;;;;;;;;4343786;32;20193;-82
2021/07/24 03:38:21;;;;;;;;;;;;;;;;;;;;;
2021/07/24 03:40:47;;;;;;;17.12;10.95;;;;;;;;;;4358687;33;20155;-82
2021/07/24 03:43:33;;;;;;;18.60;12.25;;;;;;;;;;4363629;32;20210;-82
2021/07/24 03:46:21;;;;;;;17.20;10.88;;;;;;;;;;4359208;33;20192;-82
2021/07/24 03:48:46;;;;;;;19.42;10.88;;;;;;;;;;4345497;32;20209;-82
2021/07/24 03:51:12;;;;;;;15.93;10.38;;;;;;;;;;4345915;32;20624;-82
2021/07/24 03:54:17;;;;;;;18.48;12.48;;;;;;;;;;4356588;33;20162;-82
2021/07/24 03:57:04;;;;;;;;;;;;;;;;;;;;;
2021/07/24 03:59:30;;;;;;;21.08;12.20;;;;;;;;;;4326535;33;20545;-82
2021/07/24 04:02:24;;;;;;;17.75;10.88;;;;;;;;;;4315023;33;20178;-82
2021/07/24 04:04:41;;;;;;;16.20;11.25;;;;;;;;;;4401158;32;20178;-82
2021/07/24 04:07:38;;;;;;;18.90;12.15;;;;;;;;;;4404373;32;20158;-82
2021/07/24 04:10:04;;;;;;;18.70;11.23;;;;;;;;;;4394131;32;20181;-82
2021/07/24 04:12:40;;;;;;;18.85;11.85;;;;;;;;;;4404693;32;20199;-82
2021/07/24 04:15:09;;;;;;;16.73;11.15;;;;;;;;;;4404789;32;20142;-82
2021/07/24 04:17:40;;;;;;;20.00;12.27;;;;;;;;;;4404529;32;20158;-82
2021/07/24 04:20:09;;;;;;;18.83;11.93;;;;;;;;;;4327532;33;20231;-82
2021/07/24 04:22:40;;;;;;;19.77;12.20;;;;;;;;;;4340208;32;20674;-81
2021/07/24 04:25:10;;;;;;;20.85;11.73;;;;;;;;;;4340567;32;20156;-82
2021/07/24 04:27:36;;;;;;;18.50;11.55;;;;;;;;;;4340553;32;20144;-81
2021/07/24 04:30:01;;;;;;;16.90;11.02;;;;;;;;;;4342003;33;20194;-81
2021/07/24 04:32:26;;;;;;;18.20;11.35;;;;;;;;;;4342433;32;20235;-81
2021/07/24 04:34:55;;;;;;;19.00;11.77;;;;;;;;;;4341842;32;20187;-82
2021/07/24 04:37:20;;;;;;;17.83;11.82;;;;;;;;;;4341956;32;20156;-81
2021/07/24 04:39:56;;;;;;;21.23;11.80;;;;;;;;;;4342381;33;20148;-81
2021/07/24 04:42:24;;;;;;;19.70;12.93;;;;;;;;;;4342744;33;20205;-81
2021/07/24 04:44:50;;;;;;;22.08;12.88;;;;;;;;;;4343333;33;20215;-82
2021/07/24 04:47:52;;;;;;;20.65;12.10;;;;;;;;;;4341916;32;20151;-82
2021/07/24 04:50:23;;;;;;;18.77;11.52;;;;;;;;;;4343947;33;20124;-81
2021/07/24 04:52:54;;;;;;;19.90;11.25;;;;;;;;;;4342239;32;20167;-82
2021/07/24 04:55:29;;;;;;;18.33;11.38;;;;;;;;;;4342517;32;20175;-82
2021/07/24 04:58:10;;;;;;;;;;;;;;;;;;;;;
2021/07/24 05:00:44;;;;;;;17.37;11.00;;;;;;;;;;4342936;33;20155;-82
2021/07/24 05:03:16;;;;;;;16.60;9.65;;;;;;;;;;4343400;33;20124;-82
2021/07/24 05:05:43;;;;;;;16.95;11.05;;;;;;;;;;4341756;33;20527;-82
2021/07/24 05:08:21;;;;;;;;;;;;;;;;;;;;;
2021/07/24 05:11:00;;;;;;;;;;;;;;;;;;;;;
2021/07/24 05:13:33;;;;;;;16.02;11.10;;;;;;;;;;4343234;33;20148;-82
2021/07/24 05:15:59;;;;;;;21.55;12.48;;;;;;;;;;4342399;33;20179;-81
2021/07/24 05:19:00;;;;;;;21.50;12.40;;;;;;;;;;4341628;32;20231;-82
2021/07/24 05:21:19;;;;;;;17.33;11.98;;;;;;;;;;4345159;33;20167;-82
2021/07/24 05:23:54;;;;;;;19.27;11.23;;;;;;;;;;4344051;33;20539;-81
2021/07/24 05:26:26;;;;;;;17.85;10.45;;;;;;;;;;4345863;33;20140;-82
2021/07/24 05:28:56;;;;;;;18.05;11.45;;;;;;;;;;4344100;32;20186;-79
2021/07/24 05:31:22;;;;;;;17.23;11.52;;;;;;;;;;4344212;32;20159;-76
2021/07/24 05:34:21;;;;;;;16.42;10.73;;;;;;;;;;4344092;32;20163;-79
2021/07/24 05:36:58;;;;;;;18.98;11.18;;;;;;;;;;4357587;32;20616;-80
2021/07/24 05:39:36;;;;;;;17.58;10.63;;;;;;;;;;4358941;32;20143;-80
2021/07/24 05:42:01;;;;;;;17.70;11.77;;;;;;;;;;4359132;33;20177;-80
2021/07/24 05:44:27;;;;;;;17.77;10.85;;;;;;;;;;4358783;33;20155;-79
2021/07/24 05:46:52;;;;;;;16.30;9.90;;;;;;;;;;4359022;32;20238;-79
2021/07/24 05:49:33;;;;;;;;;;;;;;;;;;;;;
2021/07/24 05:51:59;;;;;;;16.10;10.45;;;;;;;;;;4360194;33;20590;-80
2021/07/24 05:54:30;;;;;;;19.33;11.45;;;;;;;;;;4349405;32;20167;-79
2021/07/24 05:56:55;;;;;;;17.65;11.27;;;;;;;;;;4343507;33;20155;-81
2021/07/24 05:59:26;;;;;;;20.35;12.15;;;;;;;;;;4344447;33;20494;-81
2021/07/24 06:01:58;;;;;;;15.93;9.65;;;;;;;;;;4339810;33;20167;-80
2021/07/24 06:04:44;;;;;;;;;;;;;;;;;;;;;
2021/07/24 06:07:12;;;;;;;17.60;11.80;;;;;;;;;;4344660;32;20155;-80
2021/07/24 06:09:46;;;;;;;18.95;12.35;;;;;;;;;;4344603;33;20483;-80
2021/07/24 06:12:12;;;;;;;20.23;11.43;;;;;;;;;;4357298;32;20194;-79
2021/07/24 06:14:39;;;;;;;17.33;10.90;;;;;;;;;;4358422;32;20201;-81
2021/07/24 06:17:17;;;;;;;;;;;;;;;;;;;;;
2021/07/24 06:19:42;;;;;;;17.52;9.82;;;;;;;;;;4330326;33;20200;-81
2021/07/24 06:22:08;;;;;;;18.75;12.32;;;;;;;;;;4328599;33;20164;-81
2021/07/24 06:24:36;;;;;;;16.10;10.85;;;;;;;;;;4330106;32;20530;-80
2021/07/24 06:27:01;;;;;;;17.98;10.43;;;;;;;;;;4342824;33;20228;-81
2021/07/24 06:29:34;;;;;;;16.62;11.00;;;;;;;;;;4342373;33;20547;-81
2021/07/24 06:31:59;;;;;;;17.25;11.18;;;;;;;;;;4341320;33;20209;-81
2021/07/24 06:34:25;;;;;;;16.83;11.93;;;;;;;;;;4344039;32;20171;-82
2021/07/24 06:36:50;;;;;;;15.45;10.23;;;;;;;;;;4343632;33;20225;-82
2021/07/24 06:39:17;;;;;;;17.62;11.88;;;;;;;;;;4343132;32;20198;-82
2021/07/24 06:41:43;;;;;;;16.83;10.93;;;;;;;;;;4343918;33;20206;-81
2021/07/24 06:44:08;;;;;;;14.57;9.15;;;;;;;;;;4343009;33;20159;-81
2021/07/24 06:46:34;;;;;;;17.37;10.23;;;;;;;;;;4342467;33;20156;-82
2021/07/24 06:49:02;;;;;;;17.83;10.23;;;;;;;;;;4343229;32;20597;-82
2021/07/24 06:51:27;;;;;;;16.75;10.43;;;;;;;;;;4343230;33;20619;-82
2021/07/24 06:53:53;;;;;;;17.30;11.88;;;;;;;;;;4343536;32;20164;-81
2021/07/24 06:56:18;;;;;;;16.15;10.40;;;;;;;;;;4344416;33;20260;-82
2021/07/24 06:58:43;;;;;;;15.98;10.15;;;;;;;;;;4343289;33;20277;-81
2021/07/24 07:01:12;;;;;;;17.90;10.30;;;;;;;;;;4342982;33;20238;-83
2021/07/24 07:03:38;;;;;;;16.98;10.85;;;;;;;;;;4346338;33;20210;-81
2021/07/24 07:06:06;;;;;;;13.62;10.52;;;;;;;;;;4352925;33;20587;-81
2021/07/24 07:08:33;;;;;;;14.43;10.45;;;;;;;;;;4357743;32;20167;-81
2021/07/24 07:11:05;;;;;;;14.85;9.38;;;;;;;;;;4358703;32;20186;-81
2021/07/24 07:13:31;;;;;;;17.40;10.45;;;;;;;;;;4357918;32;20171;-81
2021/07/24 07:15:57;;;;;;;14.23;9.93;;;;;;;;;;4357723;32;20163;-81
2021/07/24 07:18:22;;;;;;;16.70;10.90;;;;;;;;;;4356942;32;20206;-81
2021/07/24 07:20:47;;;;;;;12.60;9.25;;;;;;;;;;4357443;33;20209;-82
2021/07/24 07:23:19;;;;;;;17.08;10.35;;;;;;;;;;4347379;33;20163;-83
2021/07/24 07:25:44;;;;;;;13.70;10.00;;;;;;;;;;4349356;32;20227;-82
2021/07/24 07:28:10;;;;;;;13.25;9.68;;;;;;;;;;4357746;32;20204;-83
2021/07/24 07:30:36;;;;;;;18.17;11.10;;;;;;;;;;4346133;33;20470;-82
2021/07/24 07:33:02;;;;;;;14.85;10.70;;;;;;;;;;4361146;32;20210;-81
2021/07/24 07:35:27;;;;;;;14.02;10.32;;;;;;;;;;4361572;32;20167;-81
2021/07/24 07:37:54;;;;;;;14.52;9.63;;;;;;;;;;4361401;33;20224;-81
2021/07/24 07:40:23;;;;;;;15.40;10.45;;;;;;;;;;4361612;32;20191;-82
2021/07/24 07:42:48;;;;;;;15.30;10.40;;;;;;;;;;4360712;32;20258;-82
2021/07/24 07:45:16;;;;;;;14.05;9.65;;;;;;;;;;4361225;32;20135;-81
2021/07/24 07:47:42;;;;;;;16.23;10.50;;;;;;;;;;4360935;32;20250;-81
2021/07/24 07:50:10;;;;;;;15.23;9.95;;;;;;;;;;4360741;32;20162;-80
2021/07/24 07:52:35;;;;;;;17.05;10.70;;;;;;;;;;4359126;32;20194;-82
2021/07/24 07:55:01;;;;;;;17.12;10.38;;;;;;;;;;4358422;32;20226;-82
2021/07/24 07:57:29;;;;;;;14.80;10.38;;;;;;;;;;4358101;32;20174;-81
2021/07/24 07:59:57;;;;;;;14.98;10.60;;;;;;;;;;4358089;32;20155;-82
2021/07/24 08:02:22;;;;;;;13.62;10.02;;;;;;;;;;4351090;32;20221;-81
2021/07/24 08:04:49;;;;;;;14.48;10.65;;;;;;;;;;4345294;33;20242;-81
2021/07/24 08:07:15;;;;;;;16.33;10.27;;;;;;;;;;4357265;32;20215;-82
2021/07/24 08:09:49;;;;;;;14.55;10.70;;;;;;;;;;4344815;32;20623;-83
2021/07/24 08:12:14;;;;;;;14.82;10.98;;;;;;;;;;4342707;32;20514;-82
2021/07/24 08:14:40;;;;;;;15.13;9.90;;;;;;;;;;4342250;33;20224;-80
2021/07/24 08:17:09;;;;;;;15.18;11.65;;;;;;;;;;4343631;33;20591;-83
2021/07/24 08:19:35;;;;;;;13.65;10.30;;;;;;;;;;4343480;33;20148;-82
2021/07/24 08:23:05;;;;;;;13.45;9.77;;;;;;;;;;4343775;33;20228;-81
2021/07/24 08:25:14;;;;;;;15.98;10.40;;;;;;;;;;4347216;33;20182;-82
2021/07/24 08:27:45;;;;;;;15.80;11.00;;;;;;;;;;4358436;33;20191;-82
2021/07/24 08:30:40;;;;;;;19.60;12.13;;;;;;;;;;4351152;33;20248;-82
2021/07/24 08:33:05;;;;;;;15.43;10.45;;;;;;;;;;4338000;32;20202;-82
2021/07/24 08:35:44;;;;;;;15.35;10.18;;;;;;;;;;4337513;32;20206;-82
2021/07/24 08:38:09;;;;;;;14.75;9.48;;;;;;;;;;4339675;32;20215;-81
2021/07/24 08:40:49;;;;;;;15.27;10.32;;;;;;;;;;4358768;33;20153;-82
2021/07/24 08:43:25;;;;;;;;;;;;;;;;;;;;;
2021/07/24 08:46:07;;;;;;;16.80;11.15;;;;;;;;;;4305404;33;20132;-82
2021/07/24 08:48:35;;;;;;;14.18;9.80;;;;;;;;;;4341494;32;20183;-81
2021/07/24 08:51:01;;;;;;;18.50;10.10;;;;;;;;;;4343523;33;20181;-81
2021/07/24 08:53:27;;;;;;;17.98;13.43;;;;;;;;;;4344260;32;20250;-82
2021/07/24 08:56:03;;;;;;;15.50;11.48;;;;;;;;;;4347007;32;20198;-81
2021/07/24 08:58:32;;;;;;;14.05;9.18;;;;;;;;;;4347011;32;20163;-82
2021/07/24 09:00:57;;;;;;;16.23;10.38;;;;;;;;;;4343003;32;20151;-81
2021/07/24 09:03:25;;;;;;;16.58;11.32;;;;;;;;;;4344375;33;20174;-82
2021/07/24 09:05:52;;;;;;;13.95;10.00;;;;;;;;;;4346581;32;20171;-81
2021/07/24 09:08:18;;;;;;;12.90;9.80;;;;;;;;;;4346417;32;20163;-82
2021/07/24 09:10:50;;;;;;;12.52;10.00;;;;;;;;;;4344104;33;20151;-83
2021/07/24 09:13:26;;;;;;;17.48;10.82;;;;;;;;;;4344216;33;20213;-82
2021/07/24 09:15:52;;;;;;;12.70;9.43;;;;;;;;;;4346776;32;20221;-82
2021/07/24 09:18:19;;;;;;;14.68;10.50;;;;;;;;;;4346308;33;20167;-82
2021/07/24 09:20:49;;;;;;;16.33;10.52;;;;;;;;;;4346350;32;20174;-82
2021/07/24 09:23:40;;;;;;;13.55;10.43;;;;;;;;;;4346772;33;20173;-82
2021/07/24 09:26:09;;;;;;;16.35;10.90;;;;;;;;;;4347609;33;20163;-82
2021/07/24 09:28:34;;;;;;;14.35;10.68;;;;;;;;;;4345514;33;20164;-82
2021/07/24 09:31:18;;;;;;;13.62;10.35;;;;;;;;;;4346514;33;20208;-81
2021/07/24 09:34:09;;;;;;;15.80;10.77;;;;;;;;;;4346293;33;20190;-82
2021/07/24 09:36:47;;;;;;;15.07;10.82;;;;;;;;;;4346405;32;20604;-82
2021/07/24 09:39:26;;;;;;;14.82;10.52;;;;;;;;;;4360451;32;20150;-82
2021/07/24 09:41:51;;;;;;;15.02;10.55;;;;;;;;;;4346684;32;20159;-81
2021/07/24 09:44:27;;;;;;;14.45;10.40;;;;;;;;;;4346064;32;20205;-82
2021/07/24 09:47:08;;;;;;;15.82;10.35;;;;;;;;;;4359836;33;20181;-82
2021/07/24 09:49:37;;;;;;;14.25;11.27;;;;;;;;;;4347038;32;20139;-82
2021/07/24 09:52:12;;;;;;;15.73;11.25;;;;;;;;;;4343802;33;20249;-81
2021/07/24 09:54:40;;;;;;;15.45;11.50;;;;;;;;;;4346159;32;20163;-83
2021/07/24 09:57:05;;;;;;;13.93;9.90;;;;;;;;;;4359356;33;20155;-82
2021/07/24 09:59:40;;;;;;;17.15;11.68;;;;;;;;;;4346055;33;20144;-83
2021/07/24 10:02:17;;;;;;;13.88;11.23;;;;;;;;;;4345384;33;20582;-82
2021/07/24 10:07:42;;;;;;;14.85;10.82;;;;;;;;;;4298745;33;20218;-82
2021/07/24 10:10:11;;;;;;;15.65;11.80;;;;;;;;;;4337194;33;20592;-82
2021/07/24 10:12:39;;;;;;;15.57;11.23;;;;;;;;;;4343829;33;20218;-82
2021/07/24 10:15:24;;;;;;;15.80;12.00;;;;;;;;;;4342872;32;20224;-81
2021/07/24 10:17:50;;;;;;;17.05;12.52;;;;;;;;;;4347831;33;20186;-82
2021/07/24 10:20:31;;;;;;;;;;;;;;;;;;;;;
2021/07/24 10:22:59;;;;;;;20.88;12.60;;;;;;;;;;4356516;33;20147;-82
2021/07/24 10:25:56;;;;;;;16.37;10.50;;;;;;;;;;4344639;32;20167;-81
2021/07/24 10:32:26;;;;;;;14.43;9.98;;;;;;;;;;4389528;32;20162;-84
2021/07/24 10:35:03;;;;;;;17.17;12.82;;;;;;;;;;4361233;32;20163;-85
2021/07/24 10:38:01;;;;;;;16.65;11.20;;;;;;;;;;4360326;32;20716;-84
2021/07/24 10:40:48;;;;;;;18.70;11.63;;;;;;;;;;4316139;33;20141;-83
2021/07/24 10:43:37;;;;;;;15.93;11.75;;;;;;;;;;4373975;32;20224;-84
2021/07/24 10:46:06;;;;;;;14.87;11.25;;;;;;;;;;4374914;32;20175;-84
2021/07/24 10:48:46;;;;;;;18.75;13.00;;;;;;;;;;4348321;32;20190;-85
2021/07/24 10:51:34;;;;;;;;;;;;;;;;;;;;;
2021/07/24 10:54:23;;;;;;;17.50;12.90;;;;;;;;;;4309819;32;20536;-85
2021/07/24 10:57:07;;;;;;;;;;;;;;;;;;;;;
2021/07/24 10:59:45;;;;;;;15.85;11.93;;;;;;;;;;4306717;32;20305;-84
2021/07/24 11:02:18;;;;;;;16.10;11.32;;;;;;;;;;4289280;33;20254;-82
2021/07/24 11:05:10;;;;;;;18.52;12.40;;;;;;;;;;4311442;32;20202;-82
2021/07/24 11:07:59;;;;;;;20.15;14.25;;;;;;;;;;4345608;32;20190;-83
2021/07/24 11:10:37;;;;;;;15.23;10.75;;;;;;;;;;4353095;32;20171;-83
2021/07/24 11:13:46;;;;;;;16.48;11.50;;;;;;;;;;4359076;33;20240;-83
2021/07/24 11:19:21;;;;;;;19.10;13.75;;;;;;;;;;4364541;32;20177;-82
2021/07/24 11:22:05;;;;;;;19.58;13.60;;;;;;;;;;4345176;32;20222;-83
2021/07/24 11:24:31;;;;;;;17.80;13.23;;;;;;;;;;4345301;33;20522;-83
2021/07/24 11:29:52;;;;;;;17.17;12.57;;;;;;;;;;4357685;32;20653;-84
2021/07/24 11:32:31;;;;;;;18.08;11.75;;;;;;;;;;4345298;32;20166;-82
2021/07/24 11:34:57;;;;;;;19.52;12.98;;;;;;;;;;4344931;33;20227;-83
2021/07/24 11:37:35;;;;;;;13.98;11.93;;;;;;;;;;4345012;33;20210;-82
2021/07/24 11:40:00;;;;;;;19.17;13.32;;;;;;;;;;4345448;32;20177;-83
2021/07/24 11:42:25;;;;;;;16.92;11.50;;;;;;;;;;4345689;33;20163;-82
2021/07/24 11:44:51;;;;;;;19.33;13.65;;;;;;;;;;4345083;32;20219;-82
2021/07/24 11:47:26;;;;;;;;;;;;;;;;;;;;;
2021/07/24 11:50:12;;;;;;;15.80;11.43;;;;;;;;;;4352809;32;20224;-83
2021/07/24 11:52:49;;;;;;;15.57;11.55;;;;;;;;;;4345019;32;20163;-83
2021/07/24 11:55:33;;;;;;;20.25;13.85;;;;;;;;;;4344371;33;20549;-83
2021/07/24 11:58:15;;;;;;;15.45;12.37;;;;;;;;;;4345399;33;20241;-83
2021/07/24 12:00:46;;;;;;;18.37;13.30;;;;;;;;;;4345170;32;20154;-83
2021/07/24 12:03:30;;;;;;;19.02;12.98;;;;;;;;;;4345261;32;20231;-83
2021/07/24 12:06:19;;;;;;;;;;;;;;;;;;;;;
2021/07/24 12:08:53;;;;;;;21.10;12.85;;;;;;;;;;4358601;33;20166;-82
2021/07/24 12:11:19;;;;;;;16.52;11.93;;;;;;;;;;4357007;33;20319;-82
2021/07/24 12:14:01;;;;;;;16.73;12.63;;;;;;;;;;4358413;32;20173;-82
2021/07/24 12:16:34;;;;;;;17.65;13.23;;;;;;;;;;4357451;32;20580;-83
2021/07/24 12:19:09;;;;;;;17.42;12.85;;;;;;;;;;4357470;32;20576;-83
2021/07/24 12:21:35;;;;;;;16.60;12.75;;;;;;;;;;4357657;32;20213;-83
2021/07/24 12:24:43;;;;;;;18.25;12.18;;;;;;;;;;4356993;32;20201;-83
2021/07/24 12:27:18;;;;;;;16.83;12.48;;;;;;;;;;4356083;32;20676;-82
2021/07/24 12:30:01;;;;;;;20.33;15.02;;;;;;;;;;4341210;33;20193;-84
2021/07/24 12:32:47;;;;;;;20.80;13.32;;;;;;;;;;4344521;32;20201;-83
2021/07/24 12:38:27;;;;;;;16.90;13.20;;;;;;;;;;4326854;33;20206;-82
2021/07/24 12:41:55;;;;;;;16.77;13.60;;;;;;;;;;4326680;33;20229;-83
2021/07/24 12:44:10;;;;;;;18.60;14.05;;;;;;;;;;4343097;33;20198;-82
2021/07/24 12:46:36;;;;;;;20.33;14.07;;;;;;;;;;4339033;32;20160;-82
2021/07/24 12:49:05;;;;;;;19.30;15.13;;;;;;;;;;4338338;32;20202;-84
2021/07/24 12:51:36;;;;;;;19.25;13.20;;;;;;;;;;4338248;32;20223;-83
2021/07/24 12:54:16;;;;;;;23.60;14.65;;;;;;;;;;4344194;33;20174;-81
2021/07/24 12:57:01;;;;;;;16.62;12.15;;;;;;;;;;4343321;33;20169;-84
2021/07/24 12:59:29;;;;;;;21.98;14.05;;;;;;;;;;4343844;33;20167;-83
2021/07/24 13:01:54;;;;;;;19.87;14.05;;;;;;;;;;4344190;33;20186;-82
2021/07/24 13:04:31;;;;;;;19.62;13.68;;;;;;;;;;4344393;33;20178;-82
2021/07/24 13:07:06;;;;;;;19.30;14.57;;;;;;;;;;4359492;32;20174;-83
2021/07/24 13:09:43;;;;;;;22.80;16.00;;;;;;;;;;4344184;32;20162;-82
2021/07/24 13:12:16;;;;;;;23.58;15.25;;;;;;;;;;4344066;33;20162;-83
2021/07/24 13:14:41;;;;;;;21.42;15.90;;;;;;;;;;4348419;32;20492;-83
2021/07/24 13:17:07;;;;;;;24.77;16.02;;;;;;;;;;4357693;33;20190;-83
2021/07/24 13:19:41;;;;;;;24.85;15.95;;;;;;;;;;4343768;33;20689;-81
2021/07/24 13:22:06;;;;;;;25.23;16.87;;;;;;;;;;4344104;33;20212;-82
2021/07/24 13:24:33;;;;;;;22.52;16.62;;;;;;;;;;4344080;32;20332;-82
2021/07/24 13:29:57;;;;;;;;;;;;;;;;;;;;;
2021/07/24 13:32:29;;;;;;;26.75;17.52;;;;;;;;;;4310034;33;20225;-83
2021/07/24 13:35:02;;;;;;;23.27;16.70;;;;;;;;;;4302784;33;20157;-82
2021/07/24 13:37:28;;;;;;;26.30;17.25;;;;;;;;;;4341170;32;20155;-82
2021/07/24 13:39:53;;;;;;;24.00;16.62;;;;;;;;;;4341859;33;20182;-83
2021/07/24 13:42:35;;;;;;;27.75;18.95;;;;;;;;;;4343927;33;20205;-82
2021/07/24 13:45:06;;;;;;;25.58;17.58;;;;;;;;;;4357116;33;20561;-83
2021/07/24 13:47:55;;;;;;;24.35;16.52;;;;;;;;;;4337883;32;20155;-83
2021/07/24 13:50:19;;;;;;;22.85;16.87;;;;;;;;;;4357610;33;20208;-82
2021/07/24 13:52:45;;;;;;;25.60;17.58;;;;;;;;;;4335357;32;20174;-82
2021/07/24 13:55:10;;;;;;;31.02;19.15;;;;;;;;;;4366356;32;20182;-83
2021/07/24 13:57:39;;;;;;;28.42;19.83;;;;;;;;;;4334246;33;20183;-81
2021/07/24 14:00:15;;;;;;;28.58;19.27;;;;;;;;;;4333215;32;20156;-82
2021/07/24 14:02:42;;;;;;;25.62;20.10;;;;;;;;;;4344495;33;20155;-82
2021/07/24 14:05:08;;;;;;;26.92;19.23;;;;;;;;;;4335376;32;20167;-82
2021/07/24 14:07:36;;;;;;;27.83;20.92;;;;;;;;;;4339238;33;20213;-83
2021/07/24 14:10:06;;;;;;;29.02;20.58;;;;;;;;;;4354194;33;20189;-82
2021/07/24 14:12:35;;;;;;;27.65;20.35;;;;;;;;;;4360244;32;20165;-83
2021/07/24 14:15:00;;;;;;;32.03;20.52;;;;;;;;;;4345865;32;20288;-83
2021/07/24 14:17:39;;;;;;;29.42;20.52;;;;;;;;;;4345542;33;20573;-82
2021/07/24 14:20:05;;;;;;;33.15;21.48;;;;;;;;;;4346178;33;20155;-81
2021/07/24 14:22:33;;;;;;;30.30;21.52;;;;;;;;;;4345572;33;20614;-83
2021/07/24 14:28:01;;;;;;;36.13;22.87;;;;;;;;;;4345218;33;20638;-82
2021/07/24 14:30:26;;;;;;;33.10;21.62;;;;;;;;;;4343575;33;20536;-81
2021/07/24 14:32:52;;;;;;;36.05;22.27;;;;;;;;;;4343668;33;20167;-83
2021/07/24 14:35:18;;;;;;;34.92;23.05;;;;;;;;;;4330762;33;20178;-82
2021/07/24 14:37:43;;;;;;;34.80;22.42;;;;;;;;;;4345315;32;20561;-81
2021/07/24 14:40:16;;;;;;;32.05;22.92;;;;;;;;;;4346091;32;20225;-81
2021/07/24 14:42:41;;;;;;;40.85;23.05;;;;;;;;;;4347283;32;20178;-82
2021/07/24 14:45:12;;;;;;;38.65;25.10;;;;;;;;;;4345194;32;20449;-81
2021/07/24 14:47:37;;;;;;;32.70;24.12;;;;;;;;;;4366172;32;20557;-82
2021/07/24 14:50:05;;;;;;;41.88;26.58;;;;;;;;;;4346090;33;20191;-81
2021/07/24 14:52:56;;;;;;;41.35;26.27;;;;;;;;;;4345183;33;20193;-82
2021/07/24 14:55:52;;;;;;;36.90;24.23;;;;;;;;;;4349326;33;20643;-81
2021/07/24 14:58:17;;;;;;;39.28;25.08;;;;;;;;;;4340003;33;20166;-82
2021/07/24 15:00:45;;;;;;;40.00;28.30;;;;;;;;;;4345127;32;20233;-82
2021/07/24 15:03:13;;;;;;;42.88;27.62;;;;;;;;;;4345889;33;20569;-81
2021/07/24 15:05:49;;;;;;;36.55;25.98;;;;;;;;;;4344816;32;20237;-81
2021/07/24 15:08:17;;;;;;;37.40;26.05;;;;;;;;;;4345847;33;20604;-82
2021/07/24 15:10:45;;;;;;;42.30;27.00;;;;;;;;;;4345028;33;20606;-81
2021/07/24 15:13:53;;;;;;;38.35;25.05;;;;;;;;;;4344954;33;20175;-81
2021/07/24 15:16:46;;;;;;;;;;;;;;;;;;;;;
2021/07/24 15:19:17;;;;;;;39.33;27.08;;;;;;;;;;4374427;32;20494;-81
2021/07/24 15:22:23;;;;;;;39.10;29.75;;;;;;;;;;4360992;32;20285;-81
2021/07/24 15:25:00;;;;;;;35.78;27.30;;;;;;;;;;4361310;32;20580;-81
2021/07/24 15:30:42;;;;;;;39.95;29.33;;;;;;;;;;4366751;32;20160;-81
2021/07/24 15:33:13;;;;;;;41.67;28.77;;;;;;;;;;4344742;32;20163;-81
2021/07/24 15:35:56;;;;;;;40.05;28.98;;;;;;;;;;4345118;32;20147;-81
2021/07/24 15:38:43;;;;;;;36.33;27.10;;;;;;;;;;4334753;32;20576;-83
2021/07/24 15:41:11;;;;;;;44.25;29.92;;;;;;;;;;4358731;32;20194;-82
2021/07/24 15:43:36;;;;;;;33.88;24.95;;;;;;;;;;4345241;32;20159;-82